createdAt,value
2023-11-24T00:01:49.080Z,31.42
2023-11-24T00:04:35.094Z,30.18
2023-11-24T00:07:02.117Z,31.22
2023-11-24T00:09:30.420Z,31.50
2023-11-24T00:11:57.340Z,29.43
2023-11-24T00:14:24.129Z,29.61
2023-11-24T00:16:52.948Z,31.08
2023-11-24T00:19:19.911Z,30.00
2023-11-24T00:21:48.083Z,29.65
2023-11-24T00:24:14.851Z,29.19
2023-11-24T00:26:41.602Z,29.91
2023-11-24T00:29:08.440Z,30.12
2023-11-24T00:31:35.256Z,28.85
2023-11-24T00:34:02.228Z,30.38
2023-11-24T00:36:29.080Z,29.05
2023-11-24T00:38:56.220Z,27.58
2023-11-24T00:41:22.987Z,27.41
2023-11-24T00:43:51.242Z,26.57
2023-11-24T00:46:18.175Z,27.67
2023-11-24T00:48:45.458Z,28.48
2023-11-24T00:51:12.317Z,27.47
2023-11-24T00:53:39.480Z,28.34
2023-11-24T00:56:07.914Z,28.84
2023-11-24T00:58:34.736Z,28.82
2023-11-24T01:01:01.636Z,28.21
2023-11-24T01:03:31.265Z,28.57
2023-11-24T01:05:58.718Z,29.05
2023-11-24T01:08:43.653Z,29.67
2023-11-24T01:11:13.200Z,29.29
2023-11-24T01:13:40.362Z,29.99
2023-11-24T01:20:00.303Z,29.28
2023-11-24T01:22:27.184Z,29.96
2023-11-24T01:25:12.635Z,29.67
2023-11-24T01:27:39.642Z,30.60
2023-11-24T01:30:09.611Z,29.11
2023-11-24T01:32:37.623Z,30.39
2023-11-24T01:35:22.616Z,30.27
2023-11-24T01:37:50.810Z,31.57
2023-11-24T01:40:36.654Z,30.28
2023-11-24T01:43:03.955Z,29.89
2023-11-24T01:45:31.648Z,28.97
2023-11-24T01:47:58.748Z,30.09
2023-11-24T01:50:25.810Z,28.95
2023-11-24T01:56:58.058Z,28.57
2023-11-24T01:59:24.804Z,29.35
2023-11-24T02:01:54.783Z,29.71
2023-11-24T02:04:25.504Z,30.57
2023-11-24T02:06:53.320Z,30.88
2023-11-24T02:09:21.407Z,31.16
2023-11-24T02:11:50.957Z,32.27
2023-11-24T02:14:19.002Z,32.34
2023-11-24T02:16:46.189Z,31.30
2023-11-24T02:19:15.333Z,31.34
2023-11-24T02:21:42.535Z,32.68
2023-11-24T02:24:09.381Z,30.46
2023-11-24T02:26:38.996Z,30.47
2023-11-24T02:29:06.911Z,30.29
2023-11-24T02:31:34.198Z,30.68
2023-11-24T02:34:01.132Z,31.38
2023-11-24T02:36:28.487Z,30.17
2023-11-24T02:38:55.288Z,30.59
2023-11-24T02:41:34.159Z,30.58
2023-11-24T02:44:01.234Z,29.28
2023-11-24T02:50:13.568Z,31.01
2023-11-24T02:52:41.311Z,31.22
2023-11-24T02:55:23.334Z,30.96
2023-11-24T02:57:59.637Z,31.79
2023-11-24T03:00:26.532Z,31.69
2023-11-24T03:02:54.862Z,30.85
2023-11-24T03:05:21.974Z,31.01
2023-11-24T03:07:51.523Z,30.00
2023-11-24T03:10:18.328Z,29.64
2023-11-24T03:12:45.923Z,29.54
2023-11-24T03:15:31.476Z,28.46
2023-11-24T03:21:32.490Z,28.34
2023-11-24T03:23:59.338Z,28.37
2023-11-24T03:26:28.989Z,29.14
2023-11-24T03:28:55.895Z,29.71
2023-11-24T03:31:22.629Z,30.89
2023-11-24T03:33:49.895Z,30.83
2023-11-24T03:36:17.709Z,29.00
2023-11-24T03:38:44.449Z,28.90
2023-11-24T03:41:11.252Z,29.08
2023-11-24T03:43:39.620Z,29.10
2023-11-24T03:46:07.282Z,29.23
2023-11-24T03:48:34.356Z,29.36
2023-11-24T03:51:01.495Z,30.46
2023-11-24T03:53:28.538Z,31.85
2023-11-24T03:56:17.915Z,30.48
2023-11-24T03:58:45.077Z,31.40
2023-11-24T04:01:14.963Z,32.32
2023-11-24T04:03:50.918Z,32.75
2023-11-24T04:06:17.702Z,32.92
2023-11-24T04:08:44.520Z,32.28
2023-11-24T04:11:12.431Z,33.88
2023-11-24T04:13:59.325Z,34.52
2023-11-24T04:16:26.452Z,34.35
2023-11-24T04:18:53.683Z,34.07
2023-11-24T04:21:23.473Z,33.93
2023-11-24T04:23:59.785Z,33.78
2023-11-24T04:26:37.128Z,34.86
2023-11-24T04:29:04.016Z,31.18
2023-11-24T04:31:31.063Z,29.94
2023-11-24T04:34:00.947Z,30.90
2023-11-24T04:36:34.060Z,29.77
2023-11-24T04:39:12.360Z,30.34
2023-11-24T04:41:39.171Z,32.79
2023-11-24T04:44:07.132Z,32.10
2023-11-24T04:46:34.473Z,33.08
2023-11-24T04:49:02.542Z,32.14
2023-11-24T04:51:29.809Z,31.74
2023-11-24T04:54:15.911Z,33.26
2023-11-24T04:57:01.952Z,31.42
2023-11-24T04:59:28.971Z,31.23
2023-11-24T05:02:14.637Z,31.02
2023-11-24T05:04:41.685Z,31.15
2023-11-24T05:07:08.597Z,31.94
2023-11-24T05:09:35.428Z,31.73
2023-11-24T05:12:20.870Z,32.25
2023-11-24T05:14:47.851Z,30.71
2023-11-24T05:17:19.505Z,30.62
2023-11-24T05:19:46.492Z,30.87
2023-11-24T05:22:13.824Z,30.42
2023-11-24T05:25:07.677Z,30.02
2023-11-24T05:27:34.822Z,31.84
2023-11-24T05:30:02.561Z,31.03
2023-11-24T05:33:07.426Z,30.82
2023-11-24T05:35:34.410Z,29.38
2023-11-24T05:38:01.417Z,28.81
2023-11-24T05:41:09.998Z,28.34
2023-11-24T05:43:36.821Z,29.97
2023-11-24T05:46:03.668Z,30.76
2023-11-24T05:48:30.693Z,31.39
2023-11-24T05:50:57.598Z,31.35
2023-11-24T05:53:24.487Z,35.15
2023-11-24T05:55:51.606Z,35.48
2023-11-24T05:58:18.431Z,33.20
2023-11-24T06:00:45.501Z,31.73
2023-11-24T06:03:12.366Z,32.13
2023-11-24T06:05:40.185Z,31.67
2023-11-24T06:08:07.087Z,31.64
2023-11-24T06:10:37.049Z,30.66
2023-11-24T06:13:04.302Z,31.19
2023-11-24T06:15:31.873Z,33.82
2023-11-24T06:17:59.064Z,32.88
2023-11-24T06:20:25.874Z,32.43
2023-11-24T06:22:52.691Z,32.08
2023-11-24T06:25:19.582Z,34.62
2023-11-24T06:27:46.571Z,33.21
2023-11-24T06:30:14.126Z,33.82
2023-11-24T06:32:41.037Z,32.33
2023-11-24T06:35:20.735Z,31.41
2023-11-24T06:37:47.899Z,31.02
2023-11-24T06:40:56.510Z,30.81
2023-11-24T06:43:42.184Z,32.42
2023-11-24T06:46:09.321Z,33.62
2023-11-24T06:48:36.690Z,32.02
2023-11-24T06:51:05.194Z,31.72
2023-11-24T06:53:32.441Z,33.51
2023-11-24T06:55:59.656Z,33.96
2023-11-24T06:58:26.650Z,34.66
2023-11-24T07:00:53.616Z,35.30
2023-11-24T07:03:21.058Z,32.96
2023-11-24T07:05:48.283Z,32.09
2023-11-24T07:08:15.505Z,31.70
2023-11-24T07:10:43.367Z,32.02
2023-11-24T07:13:10.290Z,31.24
2023-11-24T07:15:37.194Z,29.68
2023-11-24T07:18:05.112Z,31.25
2023-11-24T07:20:32.143Z,31.24
2023-11-24T07:23:19.060Z,29.51
2023-11-24T07:25:47.741Z,30.99
2023-11-24T07:28:14.658Z,30.08
2023-11-24T07:30:42.570Z,29.48
2023-11-24T07:33:12.076Z,28.84
2023-11-24T07:35:39.362Z,28.70
2023-11-24T07:38:06.844Z,28.11
2023-11-24T07:40:33.621Z,27.54
2023-11-24T07:43:00.476Z,26.04
2023-11-24T07:45:28.529Z,26.34
2023-11-24T07:47:55.667Z,27.66
2023-11-24T07:50:22.769Z,28.31
2023-11-24T07:52:49.678Z,28.48
2023-11-24T07:55:16.565Z,29.26
2023-11-24T07:57:43.516Z,28.67
2023-11-24T08:00:11.053Z,28.84
2023-11-24T08:02:38.078Z,30.09
2023-11-24T08:05:05.933Z,30.59
2023-11-24T08:07:32.735Z,31.90
2023-11-24T08:09:59.957Z,31.60
2023-11-24T08:12:27.061Z,31.86
2023-11-24T08:14:53.951Z,32.53
2023-11-24T08:17:20.764Z,32.04
2023-11-24T08:19:47.621Z,31.28
2023-11-24T08:22:14.700Z,30.23
2023-11-24T08:28:28.276Z,31.85
2023-11-24T08:30:55.408Z,31.77
2023-11-24T08:33:22.971Z,34.62
2023-11-24T08:35:50.444Z,35.49
2023-11-24T08:38:19.368Z,35.79
2023-11-24T08:40:46.955Z,32.17
2023-11-24T08:43:13.782Z,29.34
2023-11-24T08:45:41.042Z,29.90
2023-11-24T08:48:08.954Z,30.11
2023-11-24T08:54:19.527Z,30.22
2023-11-24T08:56:46.821Z,30.06
2023-11-24T08:59:14.164Z,30.69
2023-11-24T09:01:42.317Z,29.62
2023-11-24T09:04:09.523Z,29.00
2023-11-24T09:06:36.405Z,28.68
2023-11-24T09:09:03.981Z,28.66
2023-11-24T09:11:30.900Z,28.27
2023-11-24T09:13:59.107Z,29.15
2023-11-24T09:16:26.144Z,29.89
2023-11-24T09:18:54.240Z,30.23
2023-11-24T09:21:21.093Z,29.33
2023-11-24T09:23:48.267Z,28.80
2023-11-24T09:26:15.505Z,28.97
2023-11-24T09:28:42.297Z,29.04
2023-11-24T09:31:09.165Z,28.34
2023-11-24T09:33:39.444Z,28.46
2023-11-24T09:36:06.791Z,27.58
2023-11-24T09:41:18.308Z,27.79
2023-11-24T09:43:45.356Z,27.74
2023-11-24T09:46:12.674Z,28.97
2023-11-24T09:48:42.764Z,28.79
2023-11-24T09:51:09.546Z,29.40
2023-11-24T09:53:36.353Z,28.71
2023-11-24T09:56:06.432Z,28.07
2023-11-24T09:58:33.304Z,27.88
2023-11-24T10:01:08.265Z,27.53
2023-11-24T10:03:39.074Z,27.08
2023-11-24T10:10:04.575Z,25.60
2023-11-24T10:12:31.386Z,25.15
2023-11-24T10:14:58.220Z,23.92
2023-11-24T10:17:25.079Z,23.35
2023-11-24T10:19:55.331Z,24.13
2023-11-24T10:22:27.715Z,24.77
2023-11-24T10:24:54.548Z,24.59
2023-11-24T10:27:22.999Z,24.26
2023-11-24T10:29:50.100Z,22.98
2023-11-24T10:32:17.226Z,24.82
2023-11-24T10:34:44.872Z,24.77
2023-11-24T10:37:20.666Z,23.79
2023-11-24T10:39:48.379Z,24.35
2023-11-24T10:42:15.716Z,23.62
2023-11-24T10:48:48.696Z,23.02
2023-11-24T10:51:31.224Z,21.82
2023-11-24T10:53:59.130Z,20.74
2023-11-24T10:56:26.070Z,21.22
2023-11-24T10:58:53.403Z,20.59
2023-11-24T11:01:21.502Z,20.88
2023-11-24T11:03:48.504Z,20.38
2023-11-24T11:06:39.723Z,20.63
2023-11-24T11:09:08.292Z,19.41
2023-11-24T11:11:41.254Z,19.62
2023-11-24T11:14:10.191Z,17.84
2023-11-24T11:16:37.053Z,16.99
2023-11-24T11:19:29.857Z,17.71
2023-11-24T11:21:56.843Z,17.35
2023-11-24T11:24:24.043Z,16.64
2023-11-24T11:26:50.814Z,17.60
2023-11-24T11:29:25.512Z,17.09
2023-11-24T11:31:52.499Z,17.96
2023-11-24T11:34:19.877Z,18.11
2023-11-24T11:37:13.842Z,19.31
2023-11-24T11:43:21.445Z,19.20
2023-11-24T11:45:51.640Z,18.93
2023-11-24T11:48:18.698Z,18.62
2023-11-24T11:50:58.532Z,18.39
2023-11-24T11:53:25.844Z,19.05
2023-11-24T11:56:05.325Z,17.45
2023-11-24T11:58:32.150Z,18.13
2023-11-24T12:01:13.476Z,18.67
2023-11-24T12:03:40.425Z,19.05
2023-11-24T12:06:07.503Z,18.09
2023-11-24T12:08:34.578Z,15.84
2023-11-24T12:11:01.315Z,13.53
2023-11-24T12:13:28.154Z,15.81
2023-11-24T12:15:55.154Z,15.70
2023-11-24T12:18:21.982Z,14.48
2023-11-24T12:20:49.133Z,15.50
2023-11-24T12:23:16.317Z,15.96
2023-11-24T12:25:43.464Z,14.53
2023-11-24T12:28:11.131Z,13.31
2023-11-24T12:30:56.445Z,13.37
2023-11-24T12:33:23.349Z,12.23
2023-11-24T12:35:57.771Z,13.81
2023-11-24T12:38:24.564Z,14.24
2023-11-24T12:40:51.961Z,14.34
2023-11-24T12:43:19.494Z,14.17
2023-11-24T12:45:50.103Z,14.58
2023-11-24T12:48:24.654Z,14.10
2023-11-24T12:50:54.228Z,12.67
2023-11-24T12:53:21.029Z,13.50
2023-11-24T12:55:48.366Z,12.97
2023-11-24T12:58:15.241Z,12.82
2023-11-24T13:00:42.079Z,12.96
2023-11-24T13:03:09.006Z,13.43
2023-11-24T13:05:35.868Z,13.98
2023-11-24T13:08:02.633Z,13.52
2023-11-24T13:10:29.411Z,13.67
2023-11-24T13:12:56.233Z,14.69
2023-11-24T13:15:23.052Z,13.82
2023-11-24T13:17:49.859Z,12.69
2023-11-24T13:20:16.716Z,11.36
2023-11-24T13:22:43.852Z,11.69
2023-11-24T13:25:11.230Z,12.61
2023-11-24T13:27:38.303Z,12.26
2023-11-24T13:30:06.189Z,14.23
2023-11-24T13:32:32.981Z,15.00
2023-11-24T13:34:59.788Z,14.96
2023-11-24T13:41:20.119Z,15.66
2023-11-24T13:43:46.910Z,16.52
2023-11-24T13:46:13.776Z,18.33
2023-11-24T13:48:43.240Z,18.12
2023-11-24T13:51:10.025Z,15.13
2023-11-24T13:53:36.775Z,15.11
2023-11-24T13:56:03.590Z,15.40
2023-11-24T13:58:30.412Z,14.46
2023-11-24T14:00:57.276Z,12.58
2023-11-24T14:03:24.214Z,16.01
2023-11-24T14:05:52.753Z,15.98
2023-11-24T14:08:19.625Z,16.62
2023-11-24T14:10:47.020Z,17.68
2023-11-24T14:13:13.852Z,17.10
2023-11-24T14:15:41.209Z,18.24
2023-11-24T14:18:08.803Z,17.86
2023-11-24T14:20:35.679Z,20.13
2023-11-24T14:23:02.449Z,19.74
2023-11-24T14:25:29.230Z,22.08
2023-11-24T14:27:56.068Z,20.00
2023-11-24T14:30:44.223Z,22.11
2023-11-24T14:33:11.013Z,20.91
2023-11-24T14:35:38.536Z,19.72
2023-11-24T14:38:05.393Z,20.43
2023-11-24T14:40:32.283Z,21.19
2023-11-24T14:42:59.299Z,22.64
2023-11-24T14:45:26.171Z,23.94
2023-11-24T14:47:53.057Z,20.28
2023-11-24T14:50:20.605Z,20.04
2023-11-24T14:52:47.463Z,21.20
2023-11-24T14:59:07.254Z,19.02
2023-11-24T15:01:34.278Z,21.37
2023-11-24T15:04:01.212Z,24.05
2023-11-24T15:06:28.091Z,21.00
2023-11-24T15:08:55.041Z,19.18
2023-11-24T15:11:22.820Z,19.91
2023-11-24T15:13:49.651Z,21.67
2023-11-24T15:16:20.086Z,19.63
2023-11-24T15:18:50.218Z,19.95
2023-11-24T15:21:17.295Z,19.95
2023-11-24T15:23:44.163Z,19.46
2023-11-24T15:26:14.060Z,19.91
2023-11-24T15:28:42.245Z,21.23
2023-11-24T15:31:09.175Z,21.98
2023-11-24T15:33:36.386Z,27.43
2023-11-24T15:36:03.276Z,21.70
2023-11-24T15:38:30.060Z,20.44
2023-11-24T15:41:04.408Z,19.25
2023-11-24T15:43:33.278Z,19.37
2023-11-24T15:46:01.278Z,21.84
2023-11-24T15:48:28.125Z,21.34
2023-11-24T15:50:55.017Z,20.36
2023-11-24T15:53:21.794Z,30.56
2023-11-24T15:55:49.097Z,21.95
2023-11-24T15:58:15.981Z,16.70
2023-11-24T16:00:49.328Z,16.81
2023-11-24T16:03:16.754Z,16.11
2023-11-24T16:05:45.047Z,15.07
2023-11-24T16:08:12.644Z,13.73
2023-11-24T16:10:41.791Z,11.01
2023-11-24T16:13:11.391Z,9.00
2023-11-24T16:15:40.643Z,8.13
2023-11-24T16:18:11.989Z,13.42
2023-11-24T16:20:42.749Z,6.89
2023-11-24T16:27:29.272Z,5.63
2023-11-24T16:30:01.992Z,5.43
2023-11-24T16:32:28.981Z,4.65
2023-11-24T16:34:56.978Z,3.60
2023-11-24T16:37:23.889Z,2.90
2023-11-24T16:39:53.394Z,2.74
2023-11-24T16:42:21.508Z,2.32
2023-11-24T16:44:51.305Z,1.71
2023-11-24T16:47:19.746Z,1.62
2023-11-24T16:49:47.867Z,1.78
2023-11-24T16:52:26.998Z,1.82
2023-11-24T16:54:54.140Z,2.14
2023-11-24T16:57:21.566Z,2.53
2023-11-24T17:03:41.569Z,2.56
2023-11-24T17:06:09.792Z,2.71
2023-11-24T17:08:37.630Z,2.65
2023-11-24T17:11:06.320Z,2.16
2023-11-24T17:13:36.449Z,2.35
2023-11-24T17:16:26.211Z,2.49
2023-11-24T17:18:54.259Z,2.65
2023-11-24T17:21:22.164Z,2.68
2023-11-24T17:23:50.085Z,2.72
2023-11-24T17:26:18.145Z,2.68
2023-11-24T17:28:46.868Z,2.68
2023-11-24T17:31:17.596Z,2.50
2023-11-24T17:33:45.800Z,2.71
2023-11-24T17:36:13.497Z,2.76
2023-11-24T17:38:40.349Z,2.80
2023-11-24T17:41:07.319Z,3.24
2023-11-24T17:43:34.231Z,3.32
2023-11-24T17:46:01.279Z,4.52
2023-11-24T17:48:30.266Z,4.22
2023-11-24T17:50:57.038Z,6.20
2023-11-24T17:53:23.889Z,3.19
2023-11-24T17:55:51.047Z,2.69
2023-11-24T17:58:19.305Z,2.28
2023-11-24T18:00:46.667Z,2.55
2023-11-24T18:03:13.933Z,2.43
2023-11-24T18:05:41.068Z,1.85
2023-11-24T18:08:07.888Z,1.70
2023-11-24T18:10:35.396Z,1.49
2023-11-24T18:13:02.600Z,1.75
2023-11-24T18:15:29.418Z,1.97
2023-11-24T18:17:56.356Z,1.79
2023-11-24T18:20:23.166Z,1.67
2023-11-24T18:22:51.540Z,1.83
2023-11-24T18:25:39.924Z,1.88
2023-11-24T18:28:08.500Z,1.59
2023-11-24T18:30:35.853Z,1.55
2023-11-24T18:33:03.027Z,1.32
2023-11-24T18:35:30.288Z,1.63
2023-11-24T18:37:57.562Z,1.41
2023-11-24T18:40:30.035Z,1.49
2023-11-24T18:42:56.887Z,1.55
2023-11-24T18:45:26.884Z,1.62
2023-11-24T18:51:42.472Z,1.60
2023-11-24T18:54:09.580Z,1.62
2023-11-24T18:56:37.265Z,1.82
2023-11-24T18:59:04.098Z,1.73
2023-11-24T19:01:30.994Z,1.83
2023-11-24T19:03:58.822Z,1.82
2023-11-24T19:06:25.660Z,1.66
2023-11-24T19:08:52.856Z,1.77
2023-11-24T19:11:22.628Z,1.71
2023-11-24T19:13:49.875Z,1.87
2023-11-24T19:16:17.554Z,2.20
2023-11-24T19:18:44.541Z,2.15
2023-11-24T19:21:31.703Z,2.19
2023-11-24T19:23:58.641Z,2.14
2023-11-24T19:26:28.380Z,2.25
2023-11-24T19:29:02.854Z,2.23
2023-11-24T19:31:35.711Z,2.05
2023-11-24T19:34:02.574Z,2.11
2023-11-24T19:36:29.407Z,3.38
2023-11-24T19:39:01.452Z,5.01
2023-11-24T19:41:28.575Z,5.51
2023-11-24T19:43:56.728Z,4.41
2023-11-24T19:46:35.162Z,2.11
2023-11-24T19:49:16.542Z,2.29
2023-11-24T19:51:51.579Z,1.90
2023-11-24T19:58:07.332Z,1.72
2023-11-24T20:00:35.572Z,1.68
2023-11-24T20:03:02.474Z,1.49
2023-11-24T20:05:30.069Z,1.59
2023-11-24T20:07:57.085Z,1.73
2023-11-24T20:10:23.908Z,1.98
2023-11-24T20:12:51.937Z,1.89
2023-11-24T20:15:19.798Z,2.07
2023-11-24T20:17:47.253Z,2.03
2023-11-24T20:20:14.076Z,2.07
2023-11-24T20:22:41.454Z,2.10
2023-11-24T20:25:09.245Z,2.10
2023-11-24T20:27:36.482Z,2.44
2023-11-24T20:30:31.983Z,2.39
2023-11-24T20:32:58.786Z,2.84
2023-11-24T20:35:25.618Z,2.92
2023-11-24T20:37:52.578Z,2.78
2023-11-24T20:40:20.705Z,2.65
2023-11-24T20:42:48.403Z,2.57
2023-11-24T20:45:15.437Z,2.72
2023-11-24T20:47:42.724Z,2.74
2023-11-24T20:50:13.821Z,3.43
2023-11-24T20:53:19.268Z,8.09
2023-11-24T20:55:46.709Z,12.53
2023-11-24T20:58:14.239Z,8.47
2023-11-24T21:00:41.221Z,3.86
2023-11-24T21:03:08.956Z,3.36
2023-11-24T21:05:36.272Z,2.93
2023-11-24T21:08:04.471Z,2.18
2023-11-24T21:10:31.901Z,2.44
2023-11-24T21:12:59.333Z,8.91
2023-11-24T21:15:26.585Z,8.28
2023-11-24T21:17:54.671Z,6.42
2023-11-24T21:20:21.677Z,3.57
2023-11-24T21:22:49.102Z,2.76
2023-11-24T21:25:16.296Z,2.81
2023-11-24T21:27:43.192Z,2.60
2023-11-24T21:30:12.877Z,2.82
2023-11-24T21:32:41.308Z,2.31
2023-11-24T21:35:09.320Z,2.32
2023-11-24T21:37:37.197Z,2.18
2023-11-24T21:40:08.847Z,2.42
2023-11-24T21:42:36.967Z,2.60
2023-11-24T21:45:05.316Z,2.71
2023-11-24T21:47:33.994Z,2.83
2023-11-24T21:50:07.737Z,3.32
2023-11-24T21:52:35.446Z,3.28
2023-11-24T21:55:02.569Z,3.72
2023-11-24T21:57:29.428Z,4.40
2023-11-24T21:59:56.637Z,4.39
2023-11-24T22:02:26.108Z,4.89
2023-11-24T22:04:52.996Z,4.43
2023-11-24T22:07:23.461Z,4.32
2023-11-24T22:09:50.684Z,4.55
2023-11-24T22:12:17.488Z,4.34
2023-11-24T22:14:44.515Z,4.52
2023-11-24T22:17:20.103Z,4.74
2023-11-24T22:19:49.982Z,4.84
2023-11-24T22:22:18.388Z,4.29
2023-11-24T22:24:45.314Z,4.19
2023-11-24T22:27:13.309Z,3.51
2023-11-24T22:29:51.301Z,3.11
2023-11-24T22:32:25.667Z,3.05
2023-11-24T22:34:53.439Z,2.75
2023-11-24T22:37:20.684Z,2.51
2023-11-24T22:39:47.923Z,2.10
2023-11-24T22:42:15.290Z,1.92
2023-11-24T22:44:42.809Z,1.98
2023-11-24T22:47:09.769Z,1.77
2023-11-24T22:49:38.555Z,1.75
2023-11-24T22:52:06.940Z,1.89
2023-11-24T22:54:37.952Z,1.85
2023-11-24T22:57:05.841Z,1.79
2023-11-24T22:59:33.812Z,1.80
2023-11-24T23:02:01.830Z,1.79
2023-11-24T23:04:28.780Z,1.55
2023-11-24T23:06:56.019Z,1.82
2023-11-24T23:09:26.495Z,1.69
2023-11-24T23:11:53.354Z,1.45
2023-11-24T23:14:25.436Z,1.45
2023-11-24T23:16:55.765Z,1.44
2023-11-24T23:19:23.191Z,1.42
2023-11-24T23:21:50.612Z,1.25
2023-11-24T23:24:18.769Z,1.26
2023-11-24T23:26:46.784Z,1.28
2023-11-24T23:29:15.114Z,1.44
2023-11-24T23:31:42.061Z,1.26
2023-11-24T23:34:09.665Z,1.26
2023-11-24T23:36:37.894Z,1.26
2023-11-24T23:39:05.653Z,1.23
2023-11-24T23:41:36.095Z,1.17
2023-11-24T23:44:04.057Z,1.42
2023-11-24T23:46:30.995Z,1.51
2023-11-24T23:48:58.316Z,1.34
2023-11-24T23:51:26.538Z,1.46
2023-11-24T23:53:56.388Z,1.20
2023-11-24T23:56:23.429Z,1.30
2023-11-24T23:58:50.768Z,1.15
